Time;durP1;ratioP1;P1;durP2;ratioP2;P2;SDS_P1;SDS_P2;PMS_P1;PMS_P2;Temp;Humidity;BMP_temperature;BMP_pressure;BME280_temperature;BME280_humidity;BME280_pressure;Samples;Min_cycle;Max_cycle;Signal;HPM_P1;HPM_P2
2022/01/21 00:02:19;;;;;;;8.00;0.95;;;1.70;99.90;;;;;;5029341;28;20041;-88
2022/01/21 00:04:45;;;;;;;10.40;1.58;;;1.70;99.90;;;;;;5025030;28;20043;-87
2022/01/21 00:07:11;;;;;;;9.25;1.13;;;1.70;99.90;;;;;;5023354;28;20044;-88
2022/01/21 00:09:36;;;;;;;7.43;1.02;;;1.60;99.90;;;;;;5025813;28;20045;-87
2022/01/21 00:12:02;;;;;;;11.02;2.15;;;1.60;99.90;;;;;;5008438;28;20810;-87
2022/01/21 00:14:28;;;;;;;6.75;0.82;;;1.50;99.90;;;;;;5025190;28;20056;-87
2022/01/21 00:16:53;;;;;;;10.30;1.30;;;1.50;99.90;;;;;;5022415;28;20123;-87
2022/01/21 00:19:21;;;;;;;8.63;0.75;;;1.50;99.90;;;;;;5024530;28;20036;-87
2022/01/21 00:30:16;;;;;;;11.35;0.88;;;1.30;99.90;;;;;;5032073;28;20044;-88
2022/01/21 00:32:48;;;;;;;7.72;0.50;;;1.30;99.90;;;;;;5031300;28;20037;-87
2022/01/21 00:35:15;;;;;;;8.77;0.90;;;1.30;99.90;;;;;;5029641;28;20045;-88
2022/01/21 00:37:41;;;;;;;9.07;1.13;;;1.40;99.90;;;;;;5027309;28;20045;-87
2022/01/21 00:40:10;;;;;;;7.63;1.00;;;1.40;99.90;;;;;;5040794;28;20048;-88
2022/01/21 00:43:09;;;;;;;10.23;1.58;;;1.50;99.90;;;;;;5012887;28;20036;-88
2022/01/21 00:45:38;;;;;;;13.20;0.95;;;1.60;99.90;;;;;;5011438;28;20041;-87
2022/01/21 00:48:04;;;;;;;10.02;1.20;;;1.60;99.90;;;;;;5029584;28;20098;-87
2022/01/21 00:50:30;;;;;;;6.72;0.98;;;1.70;99.90;;;;;;5028059;28;20467;-87
2022/01/21 00:52:55;;;;;;;9.23;1.05;;;1.70;99.90;;;;;;5029328;28;20045;-87
2022/01/21 00:55:21;;;;;;;8.23;0.90;;;1.70;99.90;;;;;;5014835;28;20041;-87
2022/01/21 00:57:47;;;;;;;7.22;1.00;;;1.70;99.90;;;;;;5013339;28;20513;-87
2022/01/21 01:00:14;;;;;;;12.75;1.17;;;1.70;99.90;;;;;;5012492;28;20064;-87
2022/01/21 01:02:40;;;;;;;11.45;1.45;;;1.70;99.90;;;;;;5011850;28;20041;-87
2022/01/21 01:05:08;;;;;;;7.55;0.70;;;1.70;99.90;;;;;;5029694;28;20045;-88
2022/01/21 01:07:33;;;;;;;9.05;1.58;;;1.70;99.90;;;;;;5031174;28;20039;-87
2022/01/21 01:10:01;;;;;;;10.57;0.70;;;1.70;99.90;;;;;;5012274;28;20029;-87
2022/01/21 01:12:47;;;;;;;10.23;1.13;;;1.80;99.90;;;;;;5014658;28;20033;-87
2022/01/21 01:20:41;;;;;;;7.32;1.20;;;1.70;99.90;;;;;;5026947;28;20040;-87
2022/01/21 01:23:20;;;;;;;11.38;0.95;;;1.80;99.90;;;;;;5027456;28;20428;-87
2022/01/21 01:28:30;;;;;;;11.43;0.88;;;1.80;99.90;;;;;;5026623;28;20033;-88
2022/01/21 01:30:56;;;;;;;11.43;1.45;;;1.80;99.90;;;;;;5030036;28;20044;-87
2022/01/21 01:33:24;;;;;;;9.07;0.95;;;1.80;99.90;;;;;;5004720;28;20433;-87
2022/01/21 01:35:51;;;;;;;6.93;0.68;;;1.80;99.90;;;;;;5010207;28;20411;-88
2022/01/21 01:39:27;;;;;;;;;;;;;;;;;;;;;
2022/01/21 01:42:56;;;;;;;5.95;0.93;;;1.80;99.90;;;;;;5024584;28;20088;-87
2022/01/21 01:50:50;;;;;;;;;;;;;;;;;;;;;
2022/01/21 02:05:14;;;;;;;;;;;;;;;;;;;;;
2022/01/21 02:08:29;;;;;;;5.40;0.47;;;1.90;99.90;;;;;;4921969;29;20572;-87
2022/01/21 02:10:57;;;;;;;11.93;0.50;;;1.90;99.90;;;;;;4929883;28;20110;-87
2022/01/21 02:13:27;;;;;;;4.53;0.65;;;1.90;99.90;;;;;;4980771;28;20037;-88
2022/01/21 02:30:05;;;;;;;7.55;0.57;;;1.70;99.90;;;;;;4953804;28;20098;-87
2022/01/21 02:32:56;;;;;;;12.93;1.45;;;1.70;99.90;;;;;;4868827;29;20052;-87
2022/01/21 02:35:23;;;;;;;6.97;0.80;;;1.80;99.90;;;;;;4911482;28;20115;-87
2022/01/21 02:37:49;;;;;;;7.93;1.00;;;1.90;99.90;;;;;;4990503;28;20613;-87
2022/01/21 02:40:16;;;;;;;6.88;0.60;;;1.90;99.90;;;;;;5028830;28;20119;-87
2022/01/21 02:42:42;;;;;;;7.60;0.47;;;2.00;99.90;;;;;;5038508;28;20115;-88
2022/01/21 02:45:09;;;;;;;5.85;0.57;;;2.00;99.90;;;;;;5029201;28;20171;-88
2022/01/21 02:47:35;;;;;;;6.57;1.27;;;2.00;99.90;;;;;;5034676;28;20033;-87
2022/01/21 02:50:01;;;;;;;3.08;0.30;;;2.10;99.90;;;;;;5013819;28;20029;-88
2022/01/21 02:52:30;;;;;;;4.47;0.60;;;2.10;99.90;;;;;;5015719;28;20136;-87
2022/01/21 02:54:55;;;;;;;6.60;0.40;;;2.10;99.90;;;;;;5034968;28;20098;-88
2022/01/21 02:57:21;;;;;;;8.10;0.73;;;2.10;99.90;;;;;;5010824;28;20391;-87
2022/01/21 02:59:49;;;;;;;4.25;0.70;;;2.00;99.90;;;;;;5034168;28;20407;-87
2022/01/21 03:02:15;;;;;;;6.05;0.60;;;2.00;99.90;;;;;;5019182;28;20494;-87
2022/01/21 03:04:53;;;;;;;4.80;0.73;;;1.90;99.90;;;;;;5029549;28;20477;-87
2022/01/21 03:07:19;;;;;;;8.50;0.90;;;1.90;99.90;;;;;;5034475;28;20421;-88
2022/01/21 03:09:44;;;;;;;9.25;1.73;;;1.80;99.90;;;;;;5018621;28;20037;-87
2022/01/21 03:12:10;;;;;;;8.80;0.90;;;1.80;99.90;;;;;;5015236;28;20558;-87
2022/01/21 03:14:36;;;;;;;9.65;1.02;;;1.80;99.90;;;;;;5028737;28;20049;-87
2022/01/21 03:17:01;;;;;;;8.38;1.00;;;1.80;99.90;;;;;;5027635;28;20061;-87
2022/01/21 03:19:27;;;;;;;6.95;0.52;;;1.80;99.90;;;;;;5010528;28;20049;-87
2022/01/21 03:21:53;;;;;;;5.65;0.50;;;1.70;99.90;;;;;;5033998;28;20052;-87
2022/01/21 03:24:18;;;;;;;8.52;1.05;;;1.70;99.90;;;;;;5032508;28;20056;-87
2022/01/21 03:26:44;;;;;;;6.20;0.50;;;1.60;99.90;;;;;;5029229;28;20424;-87
2022/01/21 03:29:10;;;;;;;5.88;0.52;;;1.60;99.90;;;;;;5012561;28;20098;-87
2022/01/21 03:31:35;;;;;;;9.32;0.77;;;1.60;99.90;;;;;;5014741;28;20039;-87
2022/01/21 03:34:02;;;;;;;7.50;0.65;;;1.60;99.90;;;;;;5017357;28;20041;-87
2022/01/21 03:36:29;;;;;;;7.20;1.15;;;1.60;99.90;;;;;;5031062;28;20475;-87
2022/01/21 03:38:55;;;;;;;7.10;0.50;;;1.60;99.90;;;;;;5011761;28;20061;-87
2022/01/21 03:41:21;;;;;;;6.60;0.60;;;1.60;99.90;;;;;;5009650;28;20048;-88
2022/01/21 03:43:49;;;;;;;3.17;0.52;;;1.60;99.90;;;;;;5030513;28;20036;-87
2022/01/21 03:46:15;;;;;;;7.82;0.57;;;1.60;99.90;;;;;;5016645;28;20413;-88
2022/01/21 03:48:40;;;;;;;8.10;0.43;;;1.60;99.90;;;;;;5030923;28;20036;-87
2022/01/21 03:51:06;;;;;;;10.88;0.70;;;1.60;99.90;;;;;;5016966;28;20050;-87
2022/01/21 03:53:32;;;;;;;4.18;1.13;;;1.70;99.90;;;;;;5030227;28;20712;-88
2022/01/21 03:55:58;;;;;;;7.47;0.57;;;1.60;99.90;;;;;;5014016;28;20040;-87
2022/01/21 03:58:23;;;;;;;4.07;0.55;;;1.60;99.90;;;;;;5003668;28;20510;-87
2022/01/21 04:00:51;;;;;;;5.90;0.52;;;1.70;99.90;;;;;;5032923;28;20072;-88
2022/01/21 04:03:18;;;;;;;6.03;0.60;;;1.70;99.90;;;;;;5031274;28;20040;-87
2022/01/21 04:05:44;;;;;;;6.75;0.50;;;1.60;99.90;;;;;;5031984;28;20123;-87
2022/01/21 04:08:10;;;;;;;5.95;1.15;;;1.60;99.90;;;;;;5012784;28;20562;-87
2022/01/21 04:10:41;;;;;;;6.00;0.55;;;1.60;99.90;;;;;;5030890;28;20101;-87
2022/01/21 04:13:14;;;;;;;8.35;0.55;;;1.60;99.90;;;;;;5019146;28;20144;-87
2022/01/21 04:15:42;;;;;;;8.27;0.50;;;1.60;99.90;;;;;;5004387;28;20133;-87
2022/01/21 04:18:08;;;;;;;7.82;0.70;;;1.60;99.90;;;;;;5029750;28;20042;-87
2022/01/21 04:20:34;;;;;;;7.85;0.52;;;1.70;99.90;;;;;;5016715;28;20120;-87
2022/01/21 04:22:59;;;;;;;5.00;0.40;;;1.70;99.90;;;;;;5014092;28;20116;-87
2022/01/21 04:25:25;;;;;;;7.55;0.50;;;1.80;99.90;;;;;;5029895;28;20037;-87
2022/01/21 04:27:50;;;;;;;6.20;0.63;;;1.80;99.90;;;;;;5028888;28;20049;-87
2022/01/21 04:30:16;;;;;;;9.07;0.60;;;1.80;99.90;;;;;;5021469;28;20037;-87
2022/01/21 04:32:42;;;;;;;9.43;0.80;;;1.80;99.90;;;;;;5025444;28;20038;-87
2022/01/21 04:35:08;;;;;;;9.27;0.45;;;1.80;99.90;;;;;;5017503;28;20041;-87
2022/01/21 04:37:36;;;;;;;6.38;0.60;;;1.80;99.90;;;;;;5031156;28;20078;-87
2022/01/21 04:40:10;;;;;;;5.82;0.60;;;1.90;99.90;;;;;;5015849;28;20475;-87
2022/01/21 04:48:04;;;;;;;4.78;0.77;;;1.80;99.90;;;;;;5025702;28;20120;-87
2022/01/21 04:50:39;;;;;;;3.72;0.40;;;1.80;99.90;;;;;;5025524;28;20128;-87
2022/01/21 04:53:06;;;;;;;6.10;0.45;;;1.80;99.90;;;;;;5013472;28;20044;-88
2022/01/21 04:55:32;;;;;;;8.02;0.90;;;1.80;99.90;;;;;;5016819;28;20045;-88
2022/01/21 04:57:57;;;;;;;7.63;0.60;;;1.70;99.90;;;;;;5017391;28;20068;-87
2022/01/21 05:00:23;;;;;;;5.28;0.50;;;1.70;99.90;;;;;;5009989;28;20150;-87
2022/01/21 05:02:49;;;;;;;5.15;0.47;;;1.80;99.90;;;;;;5013436;28;20048;-87
2022/01/21 05:05:15;;;;;;;5.47;0.40;;;1.80;99.90;;;;;;5029221;28;20097;-87
2022/01/21 05:07:41;;;;;;;9.23;1.00;;;1.90;99.90;;;;;;5032602;28;20039;-88
2022/01/21 05:10:08;;;;;;;10.90;1.40;;;2.00;99.90;;;;;;5005176;28;20045;-87
2022/01/21 05:12:34;;;;;;;8.27;0.47;;;2.20;99.90;;;;;;5029833;28;20430;-87
2022/01/21 05:17:26;;;;;;;8.07;0.68;;;2.30;99.90;;;;;;5027001;28;20542;-88
2022/01/21 05:19:53;;;;;;;5.60;0.80;;;2.30;99.90;;;;;;5032337;28;20114;-87
2022/01/21 05:22:19;;;;;;;10.27;0.70;;;2.30;99.90;;;;;;5030668;28;20132;-87
2022/01/21 05:24:44;;;;;;;5.07;0.55;;;2.20;99.90;;;;;;5027243;28;20037;-87
2022/01/21 05:27:12;;;;;;;5.03;0.50;;;2.10;99.90;;;;;;5029397;28;20403;-87
2022/01/21 05:29:38;;;;;;;6.80;0.65;;;2.10;99.90;;;;;;5011041;28;20114;-88
2022/01/21 05:32:06;;;;;;;4.68;0.50;;;2.10;99.90;;;;;;5030556;28;20068;-87
2022/01/21 05:34:32;;;;;;;8.68;0.60;;;2.00;99.90;;;;;;5011771;28;20048;-87
2022/01/21 05:36:57;;;;;;;5.60;0.95;;;1.90;99.90;;;;;;5015718;28;20098;-87
2022/01/21 05:39:23;;;;;;;4.82;0.50;;;1.80;99.90;;;;;;5013643;28;20136;-87
2022/01/21 05:41:51;;;;;;;4.93;0.40;;;1.80;99.90;;;;;;5016859;28;20041;-88
2022/01/21 05:46:55;;;;;;;6.68;0.70;;;1.60;99.90;;;;;;5030790;28;20064;-87
2022/01/21 05:49:22;;;;;;;8.75;1.02;;;1.60;99.90;;;;;;5013219;28;20080;-87
2022/01/21 05:51:48;;;;;;;11.48;1.02;;;1.60;99.90;;;;;;5031379;28;20037;-87
2022/01/21 05:54:15;;;;;;;5.13;0.50;;;1.50;99.90;;;;;;5029256;28;20367;-87
2022/01/21 05:56:41;;;;;;;7.22;0.60;;;1.50;99.90;;;;;;5028775;28;20033;-88
2022/01/21 05:59:07;;;;;;;4.55;0.43;;;1.50;99.90;;;;;;5030051;28;20048;-88
2022/01/21 06:01:34;;;;;;;16.88;1.90;;;1.50;99.90;;;;;;5026616;28;20036;-87
2022/01/21 06:04:01;;;;;;;5.57;0.30;;;1.40;99.90;;;;;;5035425;28;20051;-87
2022/01/21 06:06:28;;;;;;;4.15;0.55;;;1.40;99.90;;;;;;5019163;28;20045;-87
2022/01/21 06:08:53;;;;;;;2.40;0.20;;;1.30;99.90;;;;;;5033349;28;20064;-87
2022/01/21 06:11:19;;;;;;;7.97;0.60;;;1.40;99.90;;;;;;5032056;28;20067;-87
2022/01/21 06:13:46;;;;;;;7.50;0.47;;;1.40;99.90;;;;;;5031375;28;20053;-87
2022/01/21 06:16:12;;;;;;;3.90;0.60;;;1.30;99.90;;;;;;5026484;28;20060;-87
2022/01/21 06:18:37;;;;;;;10.45;0.70;;;1.30;99.90;;;;;;5015936;28;20132;-87
2022/01/21 06:21:03;;;;;;;4.53;0.50;;;1.30;99.90;;;;;;4999149;28;20037;-87
2022/01/21 06:23:29;;;;;;;6.97;0.40;;;1.40;99.90;;;;;;5014734;28;20487;-87
2022/01/21 06:25:55;;;;;;;10.23;0.65;;;1.40;99.90;;;;;;4997838;28;20145;-87
2022/01/21 06:28:21;;;;;;;7.40;0.57;;;1.50;99.90;;;;;;5013152;28;20049;-87
2022/01/21 06:30:49;;;;;;;3.97;0.30;;;1.60;99.90;;;;;;5009381;28;20046;-87
2022/01/21 06:33:14;;;;;;;8.00;0.47;;;1.80;99.90;;;;;;5011379;28;20053;-87
2022/01/21 06:35:40;;;;;;;6.43;0.35;;;2.00;99.90;;;;;;5012091;28;20041;-87
2022/01/21 06:38:06;;;;;;;6.88;0.93;;;2.10;99.90;;;;;;5015361;28;20128;-87
2022/01/21 06:40:31;;;;;;;6.18;0.40;;;2.20;99.90;;;;;;5008569;28;20200;-87
2022/01/21 06:43:02;;;;;;;7.32;0.60;;;2.30;99.90;;;;;;5010539;28;20066;-87
2022/01/21 06:45:27;;;;;;;3.35;0.32;;;2.30;99.90;;;;;;5009000;28;20048;-87
2022/01/21 06:47:53;;;;;;;5.82;0.60;;;2.30;99.90;;;;;;5006742;28;20029;-87
2022/01/21 06:50:19;;;;;;;4.20;0.73;;;2.20;99.90;;;;;;5008722;28;20029;-87
2022/01/21 06:52:44;;;;;;;5.80;0.30;;;2.20;99.90;;;;;;4993958;28;20033;-88
2022/01/21 06:55:10;;;;;;;4.60;0.30;;;2.10;99.90;;;;;;5010226;28;20524;-87
2022/01/21 06:57:39;;;;;;;6.10;0.40;;;2.00;99.90;;;;;;5013027;28;20125;-87
2022/01/21 07:00:08;;;;;;;5.10;0.50;;;2.00;99.90;;;;;;5009252;28;20038;-86
2022/01/21 07:02:33;;;;;;;4.82;0.43;;;1.90;99.90;;;;;;5007459;28;20252;-87
2022/01/21 07:04:59;;;;;;;4.25;0.30;;;1.80;99.90;;;;;;5009850;28;20097;-87
2022/01/21 07:07:27;;;;;;;5.57;0.40;;;1.80;99.90;;;;;;5005572;28;20042;-87
2022/01/21 07:09:55;;;;;;;10.10;0.90;;;1.70;99.90;;;;;;5015999;28;20056;-87
2022/01/21 07:12:20;;;;;;;5.68;0.40;;;1.70;99.90;;;;;;5004710;28;20121;-87
2022/01/21 07:14:46;;;;;;;5.95;0.50;;;1.70;99.90;;;;;;4990173;28;20045;-87
2022/01/21 07:17:12;;;;;;;2.92;0.50;;;1.70;99.90;;;;;;5018503;28;20049;-87
2022/01/21 07:19:37;;;;;;;6.60;0.40;;;1.70;99.90;;;;;;5033798;28;20044;-87
2022/01/21 07:22:03;;;;;;;3.70;0.95;;;1.70;99.90;;;;;;5013390;28;20487;-87
2022/01/21 07:24:29;;;;;;;5.07;0.40;;;1.70;99.90;;;;;;5015153;28;20048;-87
2022/01/21 07:26:55;;;;;;;4.53;0.45;;;1.70;99.90;;;;;;5025126;28;20086;-87
2022/01/21 07:29:20;;;;;;;10.85;0.60;;;1.70;99.90;;;;;;5027899;28;20033;-87
2022/01/21 07:31:46;;;;;;;7.47;0.77;;;1.70;99.90;;;;;;5030261;28;20088;-87
2022/01/21 07:34:12;;;;;;;3.95;0.40;;;1.70;99.90;;;;;;5026891;28;20048;-87
2022/01/21 07:36:37;;;;;;;10.70;1.25;;;1.70;99.90;;;;;;5026471;28;20075;-87
2022/01/21 07:39:04;;;;;;;8.50;0.47;;;1.70;99.90;;;;;;5019853;28;20041;-87
2022/01/21 07:41:30;;;;;;;6.95;0.55;;;1.70;99.90;;;;;;5017173;28;20045;-87
2022/01/21 07:43:56;;;;;;;9.45;1.85;;;1.80;99.90;;;;;;5032047;28;20052;-87
2022/01/21 07:46:21;;;;;;;5.30;0.40;;;1.80;99.90;;;;;;5029220;28;20045;-87
2022/01/21 07:48:47;;;;;;;5.95;0.38;;;1.80;99.90;;;;;;5025215;28;20136;-87
2022/01/21 07:51:13;;;;;;;4.13;0.40;;;1.80;99.90;;;;;;5017069;28;20057;-87
2022/01/21 07:53:39;;;;;;;8.23;0.85;;;1.80;99.90;;;;;;5012610;28;20049;-87
2022/01/21 07:56:04;;;;;;;9.15;0.80;;;1.80;99.90;;;;;;5022542;28;20112;-87
2022/01/21 07:58:31;;;;;;;7.88;0.60;;;1.80;99.90;;;;;;5024435;28;20047;-87
2022/01/21 08:00:56;;;;;;;9.35;0.50;;;1.70;99.90;;;;;;5039609;28;20041;-87
2022/01/21 08:03:25;;;;;;;9.00;1.20;;;1.80;99.90;;;;;;5027836;28;20374;-87
2022/01/21 08:05:52;;;;;;;11.40;1.13;;;1.80;99.90;;;;;;5024971;28;20175;-87
2022/01/21 08:08:24;;;;;;;5.97;0.65;;;1.80;99.90;;;;;;5030716;28;20040;-87
2022/01/21 08:10:50;;;;;;;5.78;0.70;;;1.80;99.90;;;;;;5003870;28;20063;-87
2022/01/21 08:13:18;;;;;;;7.85;0.70;;;1.80;99.90;;;;;;5011616;28;20863;-87
2022/01/21 08:15:47;;;;;;;7.22;0.60;;;1.80;99.90;;;;;;5016505;28;20069;-87
2022/01/21 08:18:15;;;;;;;8.27;0.73;;;1.80;99.90;;;;;;5010173;28;20174;-87
2022/01/21 08:20:44;;;;;;;10.73;1.00;;;1.80;99.90;;;;;;4990284;28;20053;-88
2022/01/21 08:23:14;;;;;;;4.80;0.88;;;1.80;99.90;;;;;;4995875;28;20054;-86
2022/01/21 08:25:44;;;;;;;6.10;0.50;;;1.80;99.90;;;;;;4989043;28;20232;-85
2022/01/21 08:28:15;;;;;;;6.78;0.80;;;1.80;99.90;;;;;;5006052;28;20062;-87
2022/01/21 08:32:12;;;;;;;6.70;0.88;;;1.90;99.90;;;;;;4991275;28;20047;-87
2022/01/21 08:34:39;;;;;;;10.00;0.60;;;1.80;99.90;;;;;;4991229;28;20705;-86
2022/01/21 08:37:05;;;;;;;11.13;1.00;;;1.90;99.90;;;;;;4995207;28;20034;-86
2022/01/21 08:43:42;;;;;;;;;;;;;;;;;;;;;
2022/01/21 08:47:04;;;;;;;7.70;0.95;;;2.10;99.90;;;;;;4987867;28;20476;-87
2022/01/21 08:50:00;;;;;;;9.55;0.80;;;2.30;99.90;;;;;;4968262;28;20104;-87
2022/01/21 08:56:42;;;;;;;7.97;1.02;;;2.60;99.90;;;;;;4979507;28;20332;-87
2022/01/21 09:00:04;;;;;;;8.38;0.93;;;2.80;99.90;;;;;;4972049;28;20057;-86
2022/01/21 09:06:40;;;;;;;9.40;1.17;;;3.10;99.90;;;;;;4917754;29;20521;-86
2022/01/21 09:09:24;;;;;;;7.95;1.08;;;3.30;99.90;;;;;;4913955;29;20185;-86
2022/01/21 09:15:25;;;;;;;10.68;1.00;;;3.40;99.90;;;;;;4933306;29;20461;-87
2022/01/21 09:18:25;;;;;;;11.02;1.50;;;3.50;99.90;;;;;;4924015;29;20093;-86
2022/01/21 09:21:01;;;;;;;6.93;1.15;;;3.50;99.90;;;;;;4938540;28;20452;-86
2022/01/21 09:23:49;;;;;;;15.80;1.35;;;3.50;99.90;;;;;;4952886;28;20116;-87
2022/01/21 09:26:29;;;;;;;8.27;0.75;;;3.60;99.90;;;;;;4947718;28;20085;-87
2022/01/21 09:28:59;;;;;;;8.82;0.98;;;3.60;99.90;;;;;;4956965;28;20085;-87
2022/01/21 09:31:25;;;;;;;7.80;0.93;;;3.60;99.90;;;;;;4966435;28;20042;-87
2022/01/21 09:33:51;;;;;;;8.38;1.05;;;3.60;99.90;;;;;;4950352;28;20047;-86
2022/01/21 09:36:36;;;;;;;14.88;2.30;;;3.60;99.90;;;;;;4971346;28;20130;-87
2022/01/21 09:39:05;;;;;;;5.82;1.08;;;3.60;99.90;;;;;;5000624;28;20038;-86
2022/01/21 09:41:31;;;;;;;10.18;1.25;;;3.60;99.90;;;;;;4993002;28;20046;-86
2022/01/21 09:44:18;;;;;;;8.90;0.98;;;3.70;99.90;;;;;;4987501;28;20041;-87
2022/01/21 09:46:48;;;;;;;8.63;1.00;;;3.80;99.90;;;;;;4999227;28;20052;-87
2022/01/21 09:51:49;;;;;;;11.27;0.77;;;3.90;99.90;;;;;;5005614;28;20558;-87
2022/01/21 09:54:15;;;;;;;11.20;2.13;;;4.00;99.90;;;;;;5009221;28;20084;-86
2022/01/21 09:56:45;;;;;;;8.50;1.52;;;4.10;99.90;;;;;;5010776;28;20033;-87
2022/01/21 09:59:19;;;;;;;16.83;2.55;;;4.20;99.90;;;;;;5016396;28;20046;-87
2022/01/21 10:01:49;;;;;;;9.20;1.30;;;4.30;99.90;;;;;;4996008;28;20407;-87
2022/01/21 10:04:16;;;;;;;11.07;2.28;;;4.40;99.90;;;;;;4996306;28;20148;-86
2022/01/21 10:06:46;;;;;;;22.25;4.15;;;4.50;99.90;;;;;;5006058;28;20079;-86
2022/01/21 10:09:13;;;;;;;9.73;3.42;;;4.60;99.90;;;;;;4992800;28;20437;-86
2022/01/21 10:11:39;;;;;;;13.57;2.20;;;4.70;99.90;;;;;;5015175;28;20120;-87
2022/01/21 10:14:05;;;;;;;13.25;1.98;;;4.70;99.90;;;;;;5001220;28;20601;-86
2022/01/21 10:16:30;;;;;;;12.38;1.85;;;4.80;99.90;;;;;;5012842;28;20506;-86
2022/01/21 10:19:11;;;;;;;22.40;4.55;;;4.90;99.90;;;;;;5030760;28;20048;-87
2022/01/21 10:21:39;;;;;;;26.52;7.28;;;5.00;99.90;;;;;;5035680;28;20047;-87
2022/01/21 10:24:11;;;;;;;20.15;5.75;;;5.00;99.90;;;;;;5028547;28;20046;-87
2022/01/21 10:26:49;;;;;;;21.83;5.40;;;5.10;99.90;;;;;;5031142;28;20052;-87
2022/01/21 10:29:16;;;;;;;12.25;2.20;;;5.10;99.90;;;;;;5029480;28;20033;-87
2022/01/21 10:32:00;;;;;;;12.43;1.73;;;5.20;99.90;;;;;;5017900;28;20490;-86
2022/01/21 10:34:38;;;;;;;8.40;1.20;;;5.30;99.90;;;;;;5015300;28;20568;-87
2022/01/21 10:37:24;;;;;;;16.35;2.85;;;5.50;99.90;;;;;;5027720;28;20049;-86
2022/01/21 10:40:10;;;;;;;22.55;2.63;;;5.50;99.90;;;;;;5036080;28;20045;-87
2022/01/21 10:42:42;;;;;;;17.25;2.75;;;5.60;99.90;;;;;;5015943;28;20131;-86
2022/01/21 10:45:14;;;;;;;15.73;2.75;;;5.60;99.90;;;;;;5030355;28;20048;-86
2022/01/21 10:47:49;;;;;;;13.73;2.85;;;5.70;99.90;;;;;;5029448;28;20108;-87
2022/01/21 10:50:27;;;;;;;12.95;2.90;;;5.80;99.90;;;;;;5023341;28;20148;-87
2022/01/21 10:52:53;;;;;;;16.63;2.70;;;6.00;99.90;;;;;;5012807;28;20127;-87
2022/01/21 10:55:46;;;;;;;;;;;;;;;;;;;;;
2022/01/21 10:58:24;;;;;;;10.00;1.60;;;6.10;99.90;;;;;;5027356;28;20056;-86
2022/01/21 11:01:11;;;;;;;10.02;1.60;;;6.20;99.90;;;;;;5028031;28;20037;-86
2022/01/21 11:04:08;;;;;;;8.98;0.80;;;6.40;99.90;;;;;;5010233;28;20144;-86
2022/01/21 11:06:59;;;;;;;6.90;1.02;;;6.60;99.90;;;;;;5034043;28;20391;-87
2022/01/21 11:09:35;;;;;;;9.35;1.48;;;6.80;99.90;;;;;;5011851;28;20067;-87
2022/01/21 11:12:33;;;;;;;8.95;1.00;;;6.80;99.90;;;;;;5033212;28;20041;-86
2022/01/21 11:15:08;;;;;;;8.98;2.03;;;6.70;99.90;;;;;;5033200;28;20068;-86
2022/01/21 11:18:00;;;;;;;10.45;1.17;;;6.60;99.90;;;;;;5025482;28;20052;-86
2022/01/21 11:27:40;;;;;;;12.73;1.27;;;6.50;99.90;;;;;;4940987;28;20517;-87
2022/01/21 11:30:09;;;;;;;11.88;1.30;;;6.40;99.90;;;;;;4999151;28;20045;-87
2022/01/21 11:32:34;;;;;;;8.63;0.90;;;6.50;99.90;;;;;;5021978;28;20065;-87
2022/01/21 11:35:00;;;;;;;8.43;1.33;;;6.50;99.90;;;;;;5026253;28;20085;-87
2022/01/21 11:37:26;;;;;;;11.52;1.50;;;6.60;99.90;;;;;;5026716;28;20048;-87
2022/01/21 11:39:53;;;;;;;10.38;1.30;;;6.60;99.90;;;;;;5029215;28;20409;-87
2022/01/21 11:42:19;;;;;;;13.95;1.70;;;6.60;99.90;;;;;;5009860;28;20045;-87
2022/01/21 11:44:52;;;;;;;8.50;1.20;;;6.60;99.90;;;;;;5008469;28;20088;-87
2022/01/21 11:47:37;;;;;;;14.93;1.60;;;6.60;99.90;;;;;;5006797;28;20029;-86
2022/01/21 11:50:05;;;;;;;11.70;1.73;;;6.60;99.90;;;;;;5010013;28;20514;-86
2022/01/21 11:52:43;;;;;;;12.73;1.42;;;6.60;99.90;;;;;;5028605;28;20099;-86
2022/01/21 11:55:29;;;;;;;10.23;1.40;;;6.60;99.90;;;;;;5029579;28;20075;-87
2022/01/21 11:58:10;;;;;;;10.98;1.35;;;6.70;99.90;;;;;;5020773;28;20487;-87
2022/01/21 12:00:36;;;;;;;11.20;1.33;;;6.70;99.90;;;;;;5008977;28;20037;-86
2022/01/21 12:03:01;;;;;;;12.18;1.63;;;6.80;99.90;;;;;;5026228;28;20091;-86
2022/01/21 12:05:27;;;;;;;12.57;2.15;;;6.80;99.90;;;;;;5013086;28;20035;-87
2022/01/21 12:07:54;;;;;;;12.02;1.83;;;6.70;99.90;;;;;;5032118;28;20056;-86
2022/01/21 12:10:23;;;;;;;14.18;1.30;;;6.80;99.90;;;;;;5024977;28;20226;-86
2022/01/21 12:12:54;;;;;;;10.93;1.20;;;6.70;99.90;;;;;;5004898;28;20533;-87
2022/01/21 12:19:46;;;;;;;14.57;1.20;;;6.70;99.90;;;;;;5042268;28;20060;-86
2022/01/21 12:26:30;;;;;;;14.90;1.25;;;6.70;99.90;;;;;;5022753;28;20414;-86
2022/01/21 12:33:04;;;;;;;10.35;1.23;;;6.70;99.90;;;;;;5023122;28;20053;-86
2022/01/21 12:35:38;;;;;;;9.65;0.90;;;6.70;99.90;;;;;;5025759;28;20127;-86
2022/01/21 12:42:25;;;;;;;9.20;1.20;;;6.70;99.90;;;;;;4953428;28;20047;-87
2022/01/21 12:45:20;;;;;;;11.95;1.38;;;6.70;99.90;;;;;;4948898;28;20062;-86
2022/01/21 12:48:38;;;;;;;11.75;1.40;;;6.60;99.90;;;;;;4996239;28;20510;-86
2022/01/21 12:51:56;;;;;;;9.07;1.15;;;6.60;99.90;;;;;;5022748;28;20072;-87
2022/01/21 12:57:42;;;;;;;10.15;1.30;;;6.70;99.90;;;;;;4980700;28;20046;-87
2022/01/21 13:00:20;;;;;;;9.23;1.00;;;6.70;99.90;;;;;;4983820;28;20065;-87
2022/01/21 13:03:21;;;;;;;17.70;1.85;;;6.70;99.90;;;;;;4987183;28;20033;-87
2022/01/21 13:06:33;;;;;;;8.00;1.10;;;6.70;99.90;;;;;;4969571;28;20057;-87
2022/01/21 13:09:23;;;;;;;;;;;;;;;;;;;;;
2022/01/21 13:12:24;;;;;;;13.77;1.60;;;6.70;99.90;;;;;;4991709;28;20038;-87
2022/01/21 13:14:56;;;;;;;16.52;1.20;;;6.70;99.90;;;;;;4895922;28;20046;-86
2022/01/21 13:17:22;;;;;;;11.90;1.23;;;6.80;99.90;;;;;;4988762;28;20336;-87
2022/01/21 13:19:50;;;;;;;10.35;2.15;;;6.80;99.90;;;;;;4980741;28;20042;-87
2022/01/21 13:22:21;;;;;;;11.38;1.63;;;6.80;99.90;;;;;;5002675;28;20037;-87
2022/01/21 13:25:09;;;;;;;9.03;1.30;;;6.80;99.90;;;;;;5015121;28;20041;-87
2022/01/21 13:27:43;;;;;;;8.18;1.20;;;6.80;99.90;;;;;;5027825;28;20048;-87
2022/01/21 13:30:11;;;;;;;13.57;2.08;;;6.80;99.90;;;;;;5027688;28;20587;-87
2022/01/21 13:32:37;;;;;;;14.88;1.92;;;6.80;99.90;;;;;;5010029;28;20175;-87
2022/01/21 13:35:09;;;;;;;8.02;1.42;;;6.80;99.90;;;;;;5019492;28;20155;-87
2022/01/21 13:37:36;;;;;;;11.35;1.42;;;6.80;99.90;;;;;;5030271;28;20041;-87
2022/01/21 13:40:04;;;;;;;14.40;2.15;;;6.80;99.90;;;;;;5013301;28;20096;-87
2022/01/21 13:42:31;;;;;;;10.57;1.67;;;6.80;99.90;;;;;;5030483;28;20513;-87
2022/01/21 13:45:01;;;;;;;18.10;2.28;;;6.80;99.90;;;;;;5016201;28;20046;-87
2022/01/21 13:47:48;;;;;;;14.35;2.58;;;6.80;99.90;;;;;;5024586;28;20510;-87
2022/01/21 13:50:25;;;;;;;17.38;2.72;;;6.80;99.90;;;;;;5007939;28;20048;-87
2022/01/21 13:52:58;;;;;;;17.80;3.00;;;6.80;99.90;;;;;;5028068;28;20064;-87
2022/01/21 13:55:46;;;;;;;16.08;4.00;;;6.80;99.90;;;;;;4999476;28;20038;-87
2022/01/21 13:58:20;;;;;;;15.23;2.78;;;6.80;99.90;;;;;;5017336;28;20771;-86
2022/01/21 14:00:49;;;;;;;11.57;2.72;;;6.70;99.90;;;;;;5027224;28;20357;-87
2022/01/21 14:04:03;;;;;;;;;;;;;;;;;;;;;
2022/01/21 14:14:50;;;;;;;10.18;1.35;;;6.70;99.90;;;;;;4883973;29;20056;-87
2022/01/21 14:20:33;;;;;;;9.88;1.88;;;6.70;99.90;;;;;;4948748;28;20021;-87
2022/01/21 14:22:59;;;;;;;11.85;1.40;;;6.70;99.90;;;;;;5024361;28;20054;-87
2022/01/21 14:25:24;;;;;;;9.07;1.15;;;6.70;99.90;;;;;;5045029;28;20032;-87
2022/01/21 14:28:11;;;;;;;10.20;1.27;;;6.70;99.90;;;;;;5017430;28;20718;-87
2022/01/21 14:46:28;;;;;;;9.93;1.27;;;6.50;99.90;;;;;;4889340;29;20170;-87
2022/01/21 15:08:57;;;;;;;14.80;1.45;;;6.40;99.90;;;;;;4743746;30;20226;-86
2022/01/21 15:20:04;;;;;;;16.17;2.15;;;6.30;99.90;;;;;;4693007;30;20057;-86
2022/01/21 15:23:53;;;;;;;11.77;2.72;;;6.20;99.90;;;;;;4659484;30;20121;-86
2022/01/21 15:27:45;;;;;;;15.38;2.78;;;6.20;99.90;;;;;;4640094;30;20078;-87
2022/01/21 15:31:01;;;;;;;17.50;3.53;;;6.20;99.90;;;;;;4658446;30;20062;-87
2022/01/21 15:34:00;;;;;;;20.58;4.07;;;6.20;99.90;;;;;;4656499;30;20046;-87
2022/01/21 15:40:56;;;;;;;14.18;2.67;;;6.20;99.90;;;;;;4773473;30;20151;-87
2022/01/21 15:43:27;;;;;;;14.95;2.50;;;6.20;99.90;;;;;;4820081;29;20055;-87
2022/01/21 15:46:53;;;;;;;13.90;2.05;;;6.20;99.90;;;;;;4859237;29;20044;-87
2022/01/21 15:56:35;;;;;;;13.32;1.63;;;6.20;99.90;;;;;;4868819;29;20044;-87
2022/01/21 15:59:43;;;;;;;18.40;2.95;;;6.20;99.90;;;;;;4888153;29;20477;-86
2022/01/21 16:03:04;;;;;;;12.38;1.52;;;6.20;99.90;;;;;;4831110;29;20184;-87
2022/01/21 16:06:00;;;;;;;;;;;6.30;99.90;;;;;;4849639;29;20053;-87
2022/01/21 16:08:43;;;;;;;10.73;2.88;;;6.20;99.90;;;;;;4832444;29;19978;-87
2022/01/21 16:15:38;;;;;;;10.90;1.52;;;6.20;99.90;;;;;;4882282;29;20139;-87
2022/01/21 16:18:28;;;;;;;12.55;1.90;;;6.20;99.90;;;;;;4914274;29;20070;-87
2022/01/21 16:21:28;;;;;;;;;;;;;;;;;;;;;
2022/01/21 16:24:14;;;;;;;10.52;1.80;;;6.20;99.90;;;;;;4915559;29;20135;-87
2022/01/21 16:31:08;;;;;;;14.20;1.92;;;6.10;99.90;;;;;;4969998;28;19944;-86
2022/01/21 16:34:22;;;;;;;13.88;1.63;;;6.20;99.90;;;;;;4991167;28;20537;-87
2022/01/21 16:37:40;;;;;;;13.50;2.95;;;6.10;99.90;;;;;;4995468;28;20620;-86